Flight Track Log - Related Links

Times and Time Zones

All times are in EDT time to prevent confusion due to time zone crossing. See the UPS1337 flight status page for this flight to view local times or setup timezone preferences in your user account.

Time Position Orientation Groundspeed Altitude Reporting Facility
EDT Latitude Longitude Course Direction KTS MPH feet Rate Location/Type
Sat 12:10:45 AM 35.8989 -78.7742 264° West 171 197 1,600  Level Washington Center
Sat 12:11:14 AM 35.9200 -78.7647 20° North 178 205 2,600 2,481 Climbing Washington Center
Sat 12:12:29 AM 35.9797 -78.7953 338° Northwest 250 288 5,900 2,912 Climbing Washington Center
Sat 12:13:30 AM 35.9583 -78.8869 254° West 225 259 9,200 2,660 Climbing Washington Center
Sat 12:14:00 AM 36.0196 -78.9742 270° West  Level Estimated
Sat 12:15:00 AM 36.0622 -79.0940 264° West  Level Estimated
Sat 12:16:00 AM 35.8666 -78.9133 264° West  Level FlightAware Approximate
Sat 12:19:06 AM 35.8044 -79.6111 258° West 428 493 23,500  Level FlightAware ADS-B (EFYL / YLI)
Sat 12:20:02 AM 35.7810 -79.7482 258° West 438 504 25,100 1,737 Climbing FlightAware ADS-B (EFYL / YLI)
Sat 12:21:00 AM 35.7571 -79.8854 258° West 445 512 26,800 1,576 Climbing FlightAware ADS-B (EFYL / YLI)
Sat 12:21:41 AM 35.7388 -79.9931 258° West 453 521 27,700 1,425 Climbing FlightAware ADS-B (EFYL / YLI)
Sat 12:22:20 AM 35.7355 -80.0870 283° West 444 511 28,700 1,899 Climbing FlightAware ADS-B (EFYL / YLI)
Sat 12:23:00 AM 35.7650 -80.1846 293° West 431 496 30,200 2,122 Climbing FlightAware ADS-B (EFYL / YLI)
Sat 12:23:42 AM 35.7968 -80.2763 293° West 423 487 31,600 1,333 Climbing FlightAware ADS-B (EFYL / YLI)
Sat 12:24:21 AM 35.8272 -80.3646 293° West 422 486 32,000 300 Climbing FlightAware ADS-B (EFYL / YLI)
Sat 12:25:02 AM 35.8569 -80.4527 293° West 415 478 32,000  Level FlightAware ADS-B (EFYL / YLI)
Sat 12:25:39 AM 35.8846 -80.5324 293° West 406 467 32,000  Level FlightAware ADS-B (EFYL / YLI)
Sat 12:26:22 AM 35.9161 -80.6259 293° West 404 465 32,000  Level FlightAware ADS-B (EFYL / YLI)
Sat 12:27:02 AM 35.9439 -80.7069 293° West 406 467 32,000  Level FlightAware ADS-B (EFYL / YLI)
Sat 12:27:41 AM 35.9620 -80.7601 293° West 405 466 32,000  Level FlightAware ADS-B (EFYL / YLI)
Sat 12:28:17 AM 35.9993 -80.8712 293° West 406 467 32,000  Level FlightAware ADS-B (EFYL / YLI)
Sat 12:29:02 AM 36.0275 -80.9545 293° West 406 467 32,000  Level FlightAware ADS-B (EFYL / YLI)
Sat 12:29:40 AM 36.0588 -81.0487 292° West 405 466 32,000  Level FlightAware ADS-B (EFYL / YLI)
Sat 12:30:15 AM 36.0835 -81.1211 292° West 404 465 32,000  Level FlightAware ADS-B (EFYL / YLI)
Sat 12:30:59 AM 36.1165 -81.2163 298° West 403 464 32,000  Level FlightAware ADS-B (EFYL / YLI)
Sat 12:31:41 AM 36.1533 -81.3018 298° West 403 464 32,000  Level FlightAware ADS-B (EFYL / YLI)
Sat 12:32:17 AM 36.1848 -81.3751 298° West 404 465 32,000  Level FlightAware ADS-B (EFYL / YLI)
Sat 12:33:25 AM 36.2419 -81.5069 298° West 402 463 32,000  Level Indianapolis Center
Sat 12:34:25 AM 36.2942 -81.6308 298° West 402 463 32,000  Level Indianapolis Center
Sat 12:35:26 AM 36.3481 -81.7539 299° West 402 463 32,000  Level Indianapolis Center
Sat 12:36:26 AM 36.4000 -81.8753 298° West 402 463 32,000  Level Indianapolis Center
Sat 12:37:27 AM 36.4522 -81.9983 298° West 402 463 32,000  Level Indianapolis Center
Sat 12:38:27 AM 36.5044 -82.1203 298° West 402 463 32,000  Level Indianapolis Center
Sat 12:39:28 AM 36.5564 -82.2431 298° West 401 461 32,000  Level Indianapolis Center
Sat 12:40:28 AM 36.6083 -82.3650 298° West 401 461 32,000  Level Indianapolis Center
Sat 12:41:29 AM 36.6589 -82.4867 297° West 401 461 32,000  Level Indianapolis Center
Sat 12:42:29 AM 36.7094 -82.6083 297° West 397 457 32,000  Level Indianapolis Center
Sat 12:43:30 AM 36.7600 -82.7308 297° West 397 457 32,000  Level Indianapolis Center
Sat 12:44:30 AM 36.8100 -82.8547 297° West 397 457 32,000  Level Indianapolis Center
Sat 12:45:31 AM 36.8633 -82.9831 297° West 405 466 32,000  Level Indianapolis Center
Sat 12:46:31 AM 36.9158 -83.1061 298° West 399 459 32,000  Level Indianapolis Center
Sat 12:47:31 AM 36.9664 -83.2294 297° West 397 457 32,000  Level Indianapolis Center
Sat 12:48:32 AM 37.0169 -83.3519 297° West 397 457 32,000  Level Indianapolis Center
Sat 12:49:32 AM 37.0664 -83.4744 297° West 397 457 32,000 -1,034 Level Indianapolis Center
Sat 12:54:49 AM 37.3378 -84.1463 297° West 409 471 25,500 -1,356 Descending FlightAware ADS-B
Sat 12:55:48 AM 37.3886 -84.2736 296° West 393 452 23,500 -1,967 Descending FlightAware ADS-B
Sat 12:56:51 AM 37.4378 -84.4000 297° West 380 437 21,500 -2,190 Descending FlightAware ADS-B
Sat 12:57:54 AM 37.4889 -84.5293 296° West 390 449 18,900 -2,382 Descending FlightAware ADS-B
Sat 12:59:07 AM 37.5451 -84.6721 296° West 372 428 16,100 -1,691 Descending FlightAware ADS-B
Sat 01:00:23 AM 37.6022 -84.8180 296° West 366 421 14,700 -1,131 Descending FlightAware ADS-B
Sat 01:01:09 AM 37.5644 -84.7222 296° West 367 422 13,800 -1,261 Descending FlightAware ADS-B (KCVG)
Sat 01:02:22 AM 37.7052 -85.0227 313° West 302 348 12,200 -1,308 Descending FlightAware ADS-B
Sat 01:03:22 AM 37.7599 -85.0985 312° West 288 331 10,900 -1,139 Descending FlightAware ADS-B
Sat 01:04:39 AM 37.8196 -85.1995 296° West 287 330 9,600 -1,015 Descending FlightAware ADS-B
Sat 01:05:38 AM 37.8474 -85.2901 285° West 267 307 8,600 -1,100 Descending FlightAware ADS-B
Sat 01:06:39 AM 37.8664 -85.3807 286° West 257 296 7,400 -1,091 Descending FlightAware ADS-B
Sat 01:07:39 AM 37.8943 -85.4588 296° West 238 274 6,400 -1,000 Descending FlightAware ADS-B
Sat 01:08:39 AM 37.9220 -85.5308 296° West 225 259 5,400 -1,150 Descending FlightAware ADS-B
Sat 01:09:39 AM 37.9288 -85.6062 256° West 227 261 4,100 -700 Descending FlightAware ADS-B
Sat 01:10:39 AM 37.9501 -85.6582 14° North 184 212 4,000 -50 Descending FlightAware ADS-B
Sat 01:11:38 AM 37.9980 -85.6695 349° North 193 222 4,000 -650 Level FlightAware ADS-B
Sat 01:12:39 AM 38.0528 -85.6853 345° North 191 220 2,700 -1,140 Descending FlightAware ADS-B
Sat 01:13:39 AM 38.1024 -85.7027 346° North 167 192 1,700 -872 Descending FlightAware ADS-B
Sat 01:14:36 AM 38.1390 -85.7148 345° North 140 161 1,000 -341 Descending FlightAware ADS-B
Sat 01:15:42 AM 38.1806 -85.7258 345° North 171 197 1,000  Level Indianapolis Center
Sat 01:17:00 AM 38.1667 -85.7333 208° Southwest  Level FlightAware Approximate

Login

Don't have an account? Register now (free) for customized features, flight alerts, and more!